Terminal Aerodrome Forecast
Issued by NWS Bismarck, ND

Home | Current Version | Previous Version | Graphics & Text | Print | Product List | Glossary On
Versions: 1 2 3 4 5 6 7 8 9 10 11 12 13 14 15 16 17 18 19
000
FTUS43 KBIS 250800 AAA
TAFISN
TAF AMD
KISN 250804Z 2508/2606 33005KT P6SM SCT015 BKN025
      TEMPO 2508/2510 BKN015
     FM251000 33008KT 5SM -SHSN BR BKN009 OVC012
     FM251600 33014KT P6SM -SHSN OVC015
     FM260000 33006KT P6SM SCT015 SCT035=

USA.gov is the U.S. government's official web portal to all federal, state and local government web resources and services.